22.4°F
Current conditions from King Hill
Updated every 5 minutes
 
  Wednesday April 16, 2014

Station Historical Data
Daily Summary for February 12, 2012 Units:  English    Metric   Both
« Previous Day
Next Day »
Daily Weekly Monthly Yearly Custom
  High: Low: Average:
Temperature: 11.8 °F 1.4 °F 5.5 °F
Dew Point: 2.1 °F -6.7 °F -4 °F
Humidity: 83% 52% 65%
Wind Speed: 8.0mph 0.0mph 3.1mph
Wind Gust: 19.0mph - -
Wind- - NW
Pressure: 29.84 in 29.77 in -
Precipitation: 0.00 in    
Historical Graphs
 
 
Tabular Data for February 12, 2012
Time Temperature Dew Point Pressure Wind Wind Speed Wind Gust Humidity Daily Rainfall
00:00 4.4 °F -2.1 °F 29.79 in Calm   3.0 mph 74% 0.00 in
00:05 4.4 °F -2.1 °F 29.79 in Calm   3.0 mph 74% 0.00 in
00:10 4.7 °F -1.8 °F 29.79 in NNW 2.0 mph 5.0 mph 74% 0.00 in
00:15 4.9 °F -1.9 °F 29.79 in NNW 1.0 mph 5.0 mph 73% 0.00 in
00:20 5.1 °F -2.0 °F 29.79 in NNW 1.0 mph 8.0 mph 72% 0.00 in
00:25 5.1 °F -2.0 °F 29.79 in NW 2.0 mph 8.0 mph 72% 0.00 in
00:30 5.1 °F -2.0 °F 29.79 in NW 3.0 mph 6.0 mph 72% 0.00 in
00:35 5.0 °F -2.3 °F 29.79 in Calm   6.0 mph 71% 0.00 in
00:40 5.1 °F -2.5 °F 29.79 in NW 1.0 mph 6.0 mph 70% 0.00 in
00:50 5.0 °F -0.9 °F 29.78 in NW 3.0 mph 8.0 mph 76% 0.00 in
00:55 5.1 °F -3.2 °F 29.78 in NW 5.0 mph 9.0 mph 68% 0.00 in
01:00 5.1 °F -3.5 °F 29.78 in NNW 3.0 mph 9.0 mph 67% 0.00 in
01:05 5.0 °F -3.6 °F 29.78 in NNW 4.0 mph 9.0 mph 67% 0.00 in
01:10 4.9 °F -4.0 °F 29.78 in NNW 3.0 mph 9.0 mph 66% 0.00 in
01:15 4.7 °F -4.2 °F 29.78 in NW 2.0 mph 9.0 mph 66% 0.00 in
01:20 4.6 °F -4.3 °F 29.78 in NW 3.0 mph 8.0 mph 66% 0.00 in
01:25 4.5 °F -4.4 °F 29.78 in NW 2.0 mph 10.0 mph 66% 0.00 in
01:30 4.5 °F -4.7 °F 29.78 in NW 5.0 mph 10.0 mph 65% 0.00 in
01:35 4.4 °F -4.8 °F 29.78 in NW 3.0 mph 10.0 mph 65% 0.00 in
01:40 4.2 °F -5.0 °F 29.78 in NNW 1.0 mph 6.0 mph 65% 0.00 in
01:50 4.0 °F -5.2 °F 29.78 in NW 2.0 mph 8.0 mph 65% 0.00 in
01:55 4.0 °F -5.2 °F 29.78 in NW 4.0 mph 9.0 mph 65% 0.00 in
02:00 4.0 °F -5.2 °F 29.78 in NW 1.0 mph 9.0 mph 65% 0.00 in
02:05 3.9 °F -5.3 °F 29.78 in NW 2.0 mph 11.0 mph 65% 0.00 in
02:10 3.9 °F -5.6 °F 29.78 in NNW 4.0 mph 11.0 mph 64% 0.00 in
02:15 3.8 °F -5.7 °F 29.78 in NW 1.0 mph 9.0 mph 64% 0.00 in
02:20 3.7 °F -5.8 °F 29.77 in NW 2.0 mph 7.0 mph 64% 0.00 in
02:24 3.7 °F -5.8 °F 29.77 in NW 3.0 mph 8.0 mph 64% 0.00 in
02:30 3.7 °F -5.8 °F 29.77 in NW 2.0 mph 9.0 mph 64% 0.00 in
02:35 3.7 °F -5.8 °F 29.77 in NNW 2.0 mph 9.0 mph 64% 0.00 in
02:40 3.6 °F -5.9 °F 29.77 in NNW 1.0 mph 7.0 mph 64% 0.00 in
02:45 3.6 °F -5.5 °F 29.77 in NW 1.0 mph 6.0 mph 65% 0.00 in
02:50 3.5 °F -5.6 °F 29.77 in Calm   6.0 mph 65% 0.00 in
02:55 3.5 °F -6.0 °F 29.77 in NW 3.0 mph 6.0 mph 64% 0.00 in
03:00 3.6 °F -5.9 °F 29.77 in NW 3.0 mph 6.0 mph 64% 0.00 in
03:05 3.5 °F -6.0 °F 29.77 in NW 3.0 mph 6.0 mph 64% 0.00 in
03:10 3.5 °F -6.0 °F 29.77 in NW 1.0 mph 6.0 mph 64% 0.00 in
03:15 3.5 °F -6.0 °F 29.77 in NNW 2.0 mph 7.0 mph 64% 0.00 in
03:20 3.5 °F -5.6 °F 29.77 in NW 2.0 mph 7.0 mph 65% 0.00 in
03:25 3.5 °F -5.6 °F 29.77 in NNW 2.0 mph 7.0 mph 65% 0.00 in
03:30 3.4 °F -5.7 °F 29.77 in NNW 3.0 mph 6.0 mph 65% 0.00 in
03:35 3.5 °F -5.6 °F 29.77 in Calm   7.0 mph 65% 0.00 in
03:40 3.6 °F -5.2 °F 29.77 in Calm   7.0 mph 66% 0.00 in
03:50 3.9 °F -4.9 °F 29.77 in NW 2.0 mph 6.0 mph 66% 0.00 in
03:55 4.0 °F -4.8 °F 29.77 in NW 1.0 mph 6.0 mph 66% 0.00 in
04:00 4.2 °F -4.6 °F 29.77 in NW 1.0 mph 9.0 mph 66% 0.00 in
04:05 4.4 °F -4.5 °F 29.77 in NW 3.0 mph 9.0 mph 66% 0.00 in
04:10 4.5 °F -4.4 °F 29.77 in NW 1.0 mph 6.0 mph 66% 0.00 in
04:15 4.6 °F -4.3 °F 29.77 in Calm   4.0 mph 66% 0.00 in
04:20 4.6 °F -4.3 °F 29.77 in NNW 2.0 mph 6.0 mph 66% 0.00 in
04:25 4.6 °F -4.3 °F 29.77 in NNW 3.0 mph 7.0 mph 66% 0.00 in
04:35 4.6 °F -4.6 °F 29.77 in NW 5.0 mph 12.0 mph 65% 0.00 in
04:40 4.5 °F -4.7 °F 29.77 in NNW 4.0 mph 12.0 mph 65% 0.00 in
04:45 4.5 °F -4.7 °F 29.78 in NW 3.0 mph 10.0 mph 65% 0.00 in
04:50 4.2 °F -5.3 °F 29.78 in NW 6.0 mph 12.0 mph 64% 0.00 in
04:54 4.1 °F -5.1 °F 29.77 in NNW 2.0 mph 12.0 mph 65% 0.00 in
05:00 4.0 °F -5.2 °F 29.78 in NNW 3.0 mph 10.0 mph 65% 0.00 in
05:05 3.8 °F -5.3 °F 29.78 in NW 4.0 mph 11.0 mph 65% 0.00 in
05:10 3.7 °F -5.4 °F 29.78 in Calm   11.0 mph 65% 0.00 in
05:15 3.6 °F -5.5 °F 29.78 in NW 3.0 mph 9.0 mph 65% 0.00 in
05:20 3.5 °F -5.6 °F 29.78 in NNW 1.0 mph 9.0 mph 65% 0.00 in
05:25 3.4 °F -5.7 °F 29.77 in WNW 3.0 mph 8.0 mph 65% 0.00 in
05:35 3.1 °F -6.0 °F 29.78 in West 1.0 mph 11.0 mph 65% 0.00 in
05:40 2.9 °F -6.2 °F 29.78 in WNW 3.0 mph 10.0 mph 65% 0.00 in
05:45 2.8 °F -6.0 °F 29.77 in NW 3.0 mph 14.0 mph 66% 0.00 in
05:50 2.6 °F -6.2 °F 29.77 in NW 2.0 mph 14.0 mph 66% 0.00 in
05:55 2.4 °F -6.4 °F 29.78 in NW 5.0 mph 8.0 mph 66% 0.00 in
06:00 2.2 °F -6.6 °F 29.78 in NW 4.0 mph 9.0 mph 66% 0.00 in
06:05 2.0 °F -6.4 °F 29.78 in NW 6.0 mph 13.0 mph 67% 0.00 in
06:10 1.9 °F -6.5 °F 29.78 in NW 3.0 mph 13.0 mph 67% 0.00 in
06:15 1.7 °F -6.7 °F 29.78 in WNW 1.0 mph 10.0 mph 67% 0.00 in
06:20 1.6 °F -6.5 °F 29.78 in NW 2.0 mph 6.0 mph 68% 0.00 in
06:25 1.6 °F -6.2 °F 29.78 in NNW 1.0 mph 12.0 mph 69% 0.00 in
06:30 1.5 °F -6.3 °F 29.78 in NW 2.0 mph 12.0 mph 69% 0.00 in
06:35 1.6 °F -6.2 °F 29.78 in North 1.0 mph 6.0 mph 69% 0.00 in
06:45 1.4 °F -6.1 °F 29.78 in NNW 2.0 mph 5.0 mph 70% 0.00 in
06:55 1.5 °F -5.7 °F 29.78 in NW 1.0 mph 7.0 mph 71% 0.00 in
07:00 1.5 °F -5.7 °F 29.78 in NNW 3.0 mph 11.0 mph 71% 0.00 in
07:05 1.7 °F -5.5 °F 29.78 in NNW 3.0 mph 11.0 mph 71% 0.00 in
07:10 1.7 °F -5.2 °F 29.78 in NW 3.0 mph 8.0 mph 72% 0.00 in
07:15 1.7 °F -5.2 °F 29.78 in NNW 2.0 mph 7.0 mph 72% 0.00 in
07:19 1.8 °F -5.1 °F 29.79 in Calm   7.0 mph 72% 0.00 in
07:25 1.8 °F -5.1 °F 29.79 in NNW 2.0 mph 7.0 mph 72% 0.00 in
07:29 1.9 °F -4.8 °F 29.79 in NNW 1.0 mph 7.0 mph 73% 0.00 in
07:34 2.0 °F -4.7 °F 29.79 in NW 2.0 mph 6.0 mph 73% 0.00 in
07:40 2.0 °F -4.7 °F 29.79 in NW 1.0 mph 6.0 mph 73% 0.00 in
07:45 2.1 °F -4.6 °F 29.79 in NNW 1.0 mph 7.0 mph 73% 0.00 in
07:50 2.2 °F -4.5 °F 29.79 in NNW 4.0 mph 10.0 mph 73% 0.00 in
07:54 2.2 °F -4.5 °F 29.79 in NW 3.0 mph 10.0 mph 73% 0.00 in
08:00 2.3 °F -4.4 °F 29.80 in NNW 2.0 mph 10.0 mph 73% 0.00 in
08:05 2.3 °F -4.4 °F 29.80 in NW 2.0 mph 6.0 mph 73% 0.00 in
08:09 2.4 °F -4.0 °F 29.80 in Calm   6.0 mph 74% 0.00 in
08:15 2.5 °F -4.2 °F 29.80 in WNW 3.0 mph 7.0 mph 73% 0.00 in
08:19 2.5 °F -4.2 °F 29.80 in NNW 3.0 mph 8.0 mph 73% 0.00 in
08:25 2.5 °F -4.2 °F 29.80 in NNW 3.0 mph 8.0 mph 73% 0.00 in
08:30 2.7 °F -4.0 °F 29.80 in North 1.0 mph 8.0 mph 73% 0.00 in
08:40 2.6 °F -4.4 °F 29.81 in NW 6.0 mph 14.0 mph 72% 0.00 in
08:45 2.2 °F -4.8 °F 29.81 in NNW 6.0 mph 14.0 mph 72% 0.00 in
08:50 2.0 °F -5.0 °F 29.81 in NNW 6.0 mph 12.0 mph 72% 0.00 in
08:55 2.0 °F -4.7 °F 29.80 in NNW 4.0 mph 12.0 mph 73% 0.00 in
09:00 2.0 °F -4.7 °F 29.81 in NNW 5.0 mph 13.0 mph 73% 0.00 in
09:05 2.1 °F -4.6 °F 29.81 in NNW 7.0 mph 13.0 mph 73% 0.00 in
09:10 1.9 °F -4.8 °F 29.81 in NNW 5.0 mph 15.0 mph 73% 0.00 in
09:14 2.1 °F -1.9 °F 29.81 in NNW 4.0 mph 15.0 mph 83% 0.00 in
09:20 2.2 °F -4.2 °F 29.81 in NNW 2.0 mph 11.0 mph 74% 0.00 in
09:25 2.4 °F -4.3 °F 29.82 in NNW 3.0 mph 10.0 mph 73% 0.00 in
09:29 2.4 °F -4.0 °F 29.81 in NW 1.0 mph 14.0 mph 74% 0.00 in
09:35 2.6 °F -3.8 °F 29.81 in NNW 3.0 mph 14.0 mph 74% 0.00 in
09:40 2.7 °F -3.7 °F 29.81 in North 3.0 mph 10.0 mph 74% 0.00 in
09:45 2.8 °F -3.6 °F 29.81 in NNW 4.0 mph 10.0 mph 74% 0.00 in
09:50 2.8 °F -3.9 °F 29.81 in NNW 2.0 mph 10.0 mph 73% 0.00 in
09:54 3.0 °F -3.4 °F 29.81 in NNW 5.0 mph 14.0 mph 74% 0.00 in
10:00 2.8 °F -3.9 °F 29.81 in NNW 3.0 mph 14.0 mph 73% 0.00 in
10:05 3.0 °F -3.7 °F 29.81 in NNW 2.0 mph 14.0 mph 73% 0.00 in
10:09 3.1 °F -3.9 °F 29.81 in NNW 5.0 mph 11.0 mph 72% 0.00 in
10:15 2.8 °F -4.2 °F 29.81 in NNW 2.0 mph 14.0 mph 72% 0.00 in
10:20 2.5 °F -4.8 °F 29.81 in NNW 5.0 mph 14.0 mph 71% 0.00 in
10:25 2.6 °F -4.1 °F 29.82 in NNW 3.0 mph 12.0 mph 73% 0.00 in
10:35 2.7 °F -4.0 °F 29.82 in NNW 2.0 mph 11.0 mph 73% 0.00 in
10:45 2.8 °F -3.9 °F 29.82 in NNW 1.0 mph 10.0 mph 73% 0.00 in
10:50 2.8 °F -3.9 °F 29.81 in NNW 3.0 mph 14.0 mph 73% 0.00 in
10:55 3.1 °F -3.6 °F 29.81 in NNW 2.0 mph 14.0 mph 73% 0.00 in
11:00 3.4 °F -3.3 °F 29.81 in NNW 2.0 mph 14.0 mph 73% 0.00 in
11:10 4.0 °F -3.0 °F 29.81 in North 3.0 mph 11.0 mph 72% 0.00 in
11:15 4.2 °F -3.1 °F 29.81 in NNW 3.0 mph 11.0 mph 71% 0.00 in
11:20 3.8 °F -3.5 °F 29.81 in NNW 5.0 mph 13.0 mph 71% 0.00 in
11:25 3.9 °F -3.4 °F 29.80 in NNW 2.0 mph 13.0 mph 71% 0.00 in
11:30 3.7 °F -3.9 °F 29.80 in NNW 5.0 mph 11.0 mph 70% 0.00 in
11:40 4.0 °F -3.9 °F 29.80 in NNW 3.0 mph 10.0 mph 69% 0.00 in
11:45 4.1 °F -4.1 °F 29.80 in NNW 3.0 mph 12.0 mph 68% 0.00 in
11:50 4.5 °F -4.0 °F 29.80 in NNW 5.0 mph 12.0 mph 67% 0.00 in
12:00 5.0 °F -4.5 °F 29.80 in NNW 2.0 mph 13.0 mph 64% 0.00 in
12:05 5.4 °F -3.8 °F 29.80 in NNW 3.0 mph 11.0 mph 65% 0.00 in
12:10 5.1 °F -5.4 °F 29.79 in NW 8.0 mph 14.0 mph 61% 0.00 in
12:15 5.1 °F -4.8 °F 29.79 in NNW 3.0 mph 16.0 mph 63% 0.00 in
12:19 5.5 °F -4.4 °F 29.79 in NNW 4.0 mph 16.0 mph 63% 0.00 in
12:24 5.6 °F -4.6 °F 29.78 in NNW 3.0 mph 12.0 mph 62% 0.00 in
12:30 5.9 °F -4.7 °F 29.78 in North 3.0 mph 12.0 mph 61% 0.00 in
12:35 6.2 °F -4.4 °F 29.78 in NW 4.0 mph 9.0 mph 61% 0.00 in
12:39 6.0 °F -4.9 °F 29.78 in NNW 4.0 mph 10.0 mph 60% 0.00 in
12:45 6.1 °F -4.8 °F 29.78 in NW 4.0 mph 11.0 mph 60% 0.00 in
12:50 6.8 °F -4.5 °F 29.78 in NNW 4.0 mph 11.0 mph 59% 0.00 in
12:55 6.4 °F -5.2 °F 29.78 in NW 7.0 mph 11.0 mph 58% 0.00 in
13:00 6.6 °F -4.0 °F 29.78 in NNW 5.0 mph 12.0 mph 61% 0.00 in
13:05 6.7 °F -4.6 °F 29.78 in NNW 4.0 mph 12.0 mph 59% 0.00 in
13:10 6.6 °F -4.3 °F 29.78 in NW 7.0 mph 13.0 mph 60% 0.00 in
13:15 6.1 °F -5.2 °F 29.77 in NW 4.0 mph 14.0 mph 59% 0.00 in
13:20 6.3 °F -4.6 °F 29.77 in NNW 5.0 mph 14.0 mph 60% 0.00 in
13:25 6.8 °F -4.2 °F 29.77 in North 2.0 mph 13.0 mph 60% 0.00 in
13:35 7.0 °F -4.0 °F 29.77 in NNW 2.0 mph 12.0 mph 60% 0.00 in
13:45 7.3 °F -3.7 °F 29.77 in NNW 2.0 mph 12.0 mph 60% 0.00 in
13:50 7.1 °F -4.2 °F 29.78 in North 2.0 mph 12.0 mph 59% 0.00 in
13:55 7.1 °F -4.2 °F 29.78 in NW 2.0 mph 9.0 mph 59% 0.00 in
14:00 6.9 °F -4.4 °F 29.78 in NW 4.0 mph 9.0 mph 59% 0.00 in
14:05 7.0 °F -4.3 °F 29.78 in NW 4.0 mph 9.0 mph 59% 0.00 in
14:10 7.3 °F -4.4 °F 29.78 in NNW 2.0 mph 9.0 mph 58% 0.00 in
14:14 7.5 °F -4.6 °F 29.78 in NW 4.0 mph 11.0 mph 57% 0.00 in
14:19 7.1 °F -5.3 °F 29.78 in NW 6.0 mph 17.0 mph 56% 0.00 in
14:25 7.4 °F -4.7 °F 29.78 in NW 5.0 mph 17.0 mph 57% 0.00 in
14:29 7.4 °F -5.0 °F 29.78 in NNW 3.0 mph 14.0 mph 56% 0.00 in
14:35 7.8 °F -4.7 °F 29.78 in NNW 4.0 mph 14.0 mph 56% 0.00 in
14:40 7.8 °F -5.0 °F 29.79 in NW 7.0 mph 13.0 mph 55% 0.00 in
14:45 7.7 °F -5.1 °F 29.79 in North 3.0 mph 13.0 mph 55% 0.00 in
14:55 7.3 °F -5.5 °F 29.79 in NW 4.0 mph 15.0 mph 55% 0.00 in
15:00 7.4 °F -5.8 °F 29.78 in NNW 5.0 mph 16.0 mph 54% 0.00 in
15:05 7.6 °F -5.2 °F 29.78 in NNW 7.0 mph 16.0 mph 55% 0.00 in
15:10 7.9 °F -5.3 °F 29.79 in NNW 5.0 mph 14.0 mph 54% 0.00 in
15:15 7.7 °F -5.5 °F 29.79 in NNW 4.0 mph 14.0 mph 54% 0.00 in
15:19 7.3 °F -5.5 °F 29.79 in NNW 4.0 mph 14.0 mph 55% 0.00 in
15:25 7.6 °F -5.2 °F 29.79 in NNW 4.0 mph 12.0 mph 55% 0.00 in
15:30 7.8 °F -5.0 °F 29.79 in NNW 5.0 mph 14.0 mph 55% 0.00 in
15:34 8.0 °F -5.2 °F 29.79 in NNW 5.0 mph 14.0 mph 54% 0.00 in
15:39 7.8 °F -5.4 °F 29.79 in NNW 4.0 mph 12.0 mph 54% 0.00 in
15:45 8.0 °F -5.2 °F 29.79 in NNW 5.0 mph 13.0 mph 54% 0.00 in
15:50 8.0 °F -5.2 °F 29.79 in NW 7.0 mph 16.0 mph 54% 0.00 in
15:59 7.7 °F -5.9 °F 29.80 in NW 5.0 mph 19.0 mph 53% 0.00 in
16:04 7.8 °F -5.8 °F 29.80 in NNW 5.0 mph 19.0 mph 53% 0.00 in
16:10 7.7 °F -6.3 °F 29.80 in NW 4.0 mph 11.0 mph 52% 0.00 in
16:14 7.8 °F -5.8 °F 29.80 in NNW 4.0 mph 11.0 mph 53% 0.00 in
16:19 7.5 °F -6.1 °F 29.80 in WNW 4.0 mph 9.0 mph 53% 0.00 in
16:25 6.8 °F -6.7 °F 29.80 in NW 3.0 mph 9.0 mph 53% 0.00 in
16:35 6.5 °F -6.2 °F 29.81 in North 1.0 mph 9.0 mph 55% 0.00 in
16:40 6.4 °F -6.3 °F 29.81 in NW 2.0 mph 6.0 mph 55% 0.00 in
16:45 6.4 °F -6.3 °F 29.81 in NW 3.0 mph 7.0 mph 55% 0.00 in
16:55 6.3 °F -6.1 °F 29.81 in NNW 4.0 mph 10.0 mph 56% 0.00 in
17:05 6.0 °F -6.3 °F 29.81 in NNW 3.0 mph 10.0 mph 56% 0.00 in
17:09 5.9 °F -6.4 °F 29.82 in NW 4.0 mph 10.0 mph 56% 0.00 in
17:14 6.0 °F -6.3 °F 29.81 in NW 2.0 mph 11.0 mph 56% 0.00 in
17:20 5.9 °F -6.4 °F 29.82 in NW 4.0 mph 11.0 mph 56% 0.00 in
17:25 5.9 °F -6.4 °F 29.82 in NW 2.0 mph 9.0 mph 56% 0.00 in
17:34 5.7 °F -6.3 °F 29.82 in NW 2.0 mph 9.0 mph 57% 0.00 in
17:40 5.6 °F -6.4 °F 29.83 in NW 1.0 mph 7.0 mph 57% 0.00 in
17:50 5.4 °F -6.5 °F 29.83 in Calm   5.0 mph 57% 0.00 in
17:54 5.5 °F -6.1 °F 29.83 in NW 1.0 mph 8.0 mph 58% 0.00 in
18:00 5.6 °F -6.0 °F 29.83 in NW 1.0 mph 8.0 mph 58% 0.00 in
18:05 5.6 °F -6.0 °F 29.83 in NNW 1.0 mph 7.0 mph 58% 0.00 in
18:09 5.6 °F -6.0 °F 29.83 in Calm   7.0 mph 58% 0.00 in
18:14 5.8 °F -5.8 °F 29.83 in NW 1.0 mph 7.0 mph 58% 0.00 in
18:20 5.9 °F -5.4 °F 29.83 in WNW 1.0 mph 7.0 mph 59% 0.00 in
18:25 5.9 °F -5.4 °F 29.83 in WNW 1.0 mph 4.0 mph 59% 0.00 in
18:30 6.0 °F -5.3 °F 29.83 in WNW 1.0 mph 5.0 mph 59% 0.00 in
18:39 6.4 °F -4.9 °F 29.83 in NW 1.0 mph 5.0 mph 59% 0.00 in
18:44 6.5 °F -4.8 °F 29.83 in WNW 1.0 mph 7.0 mph 59% 0.00 in
18:50 6.7 °F -4.3 °F 29.83 in WNW 2.0 mph 7.0 mph 60% 0.00 in
18:54 6.8 °F -4.2 °F 29.83 in WNW 3.0 mph 6.0 mph 60% 0.00 in
18:59 7.0 °F -4.0 °F 29.83 in WNW 2.0 mph 9.0 mph 60% 0.00 in
19:05 7.2 °F -3.8 °F 29.84 in WNW 4.0 mph 10.0 mph 60% 0.00 in
19:09 7.4 °F -3.6 °F 29.84 in WNW 5.0 mph 10.0 mph 60% 0.00 in
19:15 7.6 °F -3.4 °F 29.83 in WNW 3.0 mph 8.0 mph 60% 0.00 in
19:20 7.8 °F -3.2 °F 29.84 in WNW 3.0 mph 8.0 mph 60% 0.00 in
19:25 7.8 °F -3.2 °F 29.84 in NW 2.0 mph 8.0 mph 60% 0.00 in
19:30 7.9 °F -2.8 °F 29.84 in WNW 2.0 mph 8.0 mph 61% 0.00 in
19:35 8.1 °F -2.6 °F 29.84 in WNW 6.0 mph 11.0 mph 61% 0.00 in
19:40 8.2 °F -2.5 °F 29.84 in WNW 5.0 mph 11.0 mph 61% 0.00 in
19:45 8.3 °F -2.4 °F 29.84 in WNW 5.0 mph 15.0 mph 61% 0.00 in
19:50 8.3 °F -2.0 °F 29.84 in West 1.0 mph 15.0 mph 62% 0.00 in
19:55 8.4 °F -2.0 °F 29.84 in WNW 4.0 mph 7.0 mph 62% 0.00 in
20:00 8.5 °F -1.9 °F 29.84 in WNW 4.0 mph 10.0 mph 62% 0.00 in
20:05 8.6 °F -1.8 °F 29.84 in WNW 3.0 mph 10.0 mph 62% 0.00 in
20:10 8.6 °F -1.4 °F 29.84 in West 2.0 mph 10.0 mph 63% 0.00 in
20:15 8.6 °F -1.4 °F 29.84 in WNW 4.0 mph 10.0 mph 63% 0.00 in
20:20 8.8 °F -1.2 °F 29.84 in West 5.0 mph 8.0 mph 63% 0.00 in
20:25 8.8 °F -1.2 °F 29.84 in West 2.0 mph 8.0 mph 63% 0.00 in
20:30 8.9 °F -0.8 °F 29.84 in West 3.0 mph 7.0 mph 64% 0.00 in
20:40 9.0 °F -0.7 °F 29.84 in West 3.0 mph 8.0 mph 64% 0.00 in
20:45 9.1 °F -0.6 °F 29.84 in West 3.0 mph 9.0 mph 64% 0.00 in
20:50 9.2 °F -0.5 °F 29.84 in West 2.0 mph 9.0 mph 64% 0.00 in
20:55 9.2 °F -0.5 °F 29.84 in West 1.0 mph 6.0 mph 64% 0.00 in
21:00 9.2 °F -0.5 °F 29.84 in WSW 1.0 mph 6.0 mph 64% 0.00 in
21:05 9.2 °F -0.5 °F 29.84 in SW 3.0 mph 6.0 mph 64% 0.00 in
21:10 9.2 °F -0.5 °F 29.84 in SW 1.0 mph 6.0 mph 64% 0.00 in
21:20 9.3 °F -0.4 °F 29.84 in SW 1.0 mph 6.0 mph 64% 0.00 in
21:25 9.4 °F -0.3 °F 29.84 in SW 2.0 mph 5.0 mph 64% 0.00 in
21:30 9.5 °F -0.2 °F 29.84 in West 2.0 mph 9.0 mph 64% 0.00 in
21:40 9.8 °F -0.3 °F 29.84 in WSW 3.0 mph 8.0 mph 63% 0.00 in
21:45 9.9 °F -0.2 °F 29.84 in WSW 3.0 mph 8.0 mph 63% 0.00 in
21:50 9.9 °F 0.2 °F 29.84 in WSW 1.0 mph 8.0 mph 64% 0.00 in
22:00 9.9 °F 0.2 °F 29.84 in WSW 2.0 mph 7.0 mph 64% 0.00 in
22:05 9.9 °F 0.5 °F 29.84 in WSW 1.0 mph 7.0 mph 65% 0.00 in
22:15 10.2 °F 0.8 °F 29.83 in WSW 5.0 mph 9.0 mph 65% 0.00 in
22:20 10.3 °F 0.5 °F 29.83 in WSW 4.0 mph 9.0 mph 64% 0.00 in
22:25 10.4 °F 1.0 °F 29.83 in SW 5.0 mph 8.0 mph 65% 0.00 in
22:35 10.5 °F 1.1 °F 29.83 in West 3.0 mph 9.0 mph 65% 0.00 in
22:40 10.6 °F 1.2 °F 29.83 in WSW 2.0 mph 9.0 mph 65% 0.00 in
22:50 10.9 °F 1.4 °F 29.83 in West 4.0 mph 10.0 mph 65% 0.00 in
22:55 10.9 °F 1.4 °F 29.83 in West 3.0 mph 10.0 mph 65% 0.00 in
23:00 11.0 °F 1.5 °F 29.83 in West 3.0 mph 7.0 mph 65% 0.00 in
23:05 11.0 °F 1.5 °F 29.83 in West 1.0 mph 7.0 mph 65% 0.00 in
23:10 11.1 °F 1.6 °F 29.83 in WSW 5.0 mph 7.0 mph 65% 0.00 in
23:15 11.2 °F 1.7 °F 29.83 in WSW 6.0 mph 9.0 mph 65% 0.00 in
23:20 11.2 °F 2.1 °F 29.83 in SW 3.0 mph 9.0 mph 66% 0.00 in
23:25 11.3 °F 1.8 °F 29.82 in West 4.0 mph 8.0 mph 65% 0.00 in
23:30 11.3 °F 1.8 °F 29.82 in West 2.0 mph 9.0 mph 65% 0.00 in
23:35 11.4 °F 1.9 °F 29.82 in West 4.0 mph 9.0 mph 65% 0.00 in
23:45 11.6 °F 1.8 °F 29.82 in WSW 3.0 mph 9.0 mph 64% 0.00 in
23:50 11.7 °F 1.9 °F 29.82 in West 4.0 mph 9.0 mph 64% 0.00 in
23:55 11.8 °F 2.0 °F 29.82 in WSW 5.0 mph 10.0 mph 64% 0.00 in
Westford Weather
Compliments of Weather Underground

 
 
Current Radar Loop:

Copyright © WestfordWeather.net 2007-2014. All rights reserved.